• Join FlightAware (Why Join?)
  • Login
  • US Flag 
06:53AM EDT


 

Airport Tracker/Info


-or-


 

Live Flight TrackerFlight Track Log ✈ LYM865 ✈ 29-Apr-2012 ✈ KDIK - KVEL

Flight Track Log - Related Links

Times and Time Zones

All times are in EDT time to prevent confusion due to time zone crossing. See the LYM865 flight status page for this flight to view local times or setup timezone preferences in your user account.

Time Position Orientation Groundspeed Altitude Reporting Facility
EDT Latitude Longitude Course Direction KTS MPH feet Rate Location/Type
06:29PM 46.8019 -102.9031 221° Southwest 173 199 5,400  Level Salt Lake Center
06:30PM 46.7592 -102.9581 221° Southwest 190 219 7,300 1,500 Climbing Salt Lake Center
06:31PM 46.7203 -103.0081 223° Southwest 191 220 8,500 1,200 Climbing Salt Lake Center
06:32PM 46.6733 -103.0728 224° Southwest 191 220 9,900 1,140 Climbing Salt Lake Center
06:33PM 46.6350 -103.1258 221° Southwest 191 220 10,900 960 Climbing Salt Lake Center
06:34PM 46.5950 -103.1761 222° Southwest 192 221 12,000 1,140 Climbing Salt Lake Center
06:35PM 46.5550 -103.2278 218° Southwest 192 221 13,300 1,020 Climbing Salt Lake Center
06:36PM 46.5119 -103.2769 219° Southwest 193 222 14,200 720 Climbing Salt Lake Center
06:37PM 46.4678 -103.3281 214° Southwest 197 227 14,900 720 Climbing Salt Lake Center
06:38PM 46.4075 -103.3864 213° Southwest 207 238 15,800 840 Climbing Salt Lake Center
06:39PM 46.3553 -103.4356 211° Southwest 216 249 16,700 720 Climbing Salt Lake Center
06:40PM 46.3028 -103.4814 213° Southwest 219 252 17,400 540 Climbing Salt Lake Center
06:41PM 46.2514 -103.5303 214° Southwest 220 253 17,900 540 Climbing Salt Lake Center
06:42PM 46.1997 -103.5806 212° Southwest 221 254 18,600 600 Climbing Salt Lake Center
06:43PM 46.1511 -103.6247 214° Southwest 215 247 19,200 600 Climbing Salt Lake Center
06:44PM 46.0911 -103.6836 217° Southwest 217 250 19,900 600 Climbing Salt Lake Center
06:45PM 46.0439 -103.7344 215° Southwest 215 247 20,500 540 Climbing Salt Lake Center
06:46PM 45.9944 -103.7839 214° Southwest 215 247 21,100 480 Climbing Salt Lake Center
06:47PM 45.9475 -103.8303 218° Southwest 210 242 21,600 360 Climbing Salt Lake Center
06:48PM 45.9022 -103.8803 216° Southwest 206 237 21,900 180 Climbing Salt Lake Center
06:49PM 45.8542 -103.9311 218° Southwest 211 243 22,000  Climbing Salt Lake Center
06:50PM 45.7942 -103.9994 219° Southwest 227 261 22,000  Level Salt Lake Center
06:51PM 45.7425 -104.0586 218° Southwest 237 273 22,000  Level Salt Lake Center
06:52PM 45.6897 -104.1169 220° Southwest 240 276 22,000  Level Salt Lake Center
06:53PM 45.6386 -104.1778 217° Southwest 239 275 22,100  Climbing Salt Lake Center
06:54PM 45.5831 -104.2372 220° Southwest 245 282 22,000  Descending Salt Lake Center
06:56PM 45.5300 -104.3008 221° Southwest 249 287 22,100 -60 Climbing Salt Lake Center
06:57PM 45.4783 -104.3644 219° Southwest 247 284 21,900 -60 Descending Salt Lake Center
06:58PM 45.4139 -104.4378 218° Southwest 247 284 22,000  Climbing Salt Lake Center
06:59PM 45.3608 -104.4969 218° Southwest 246 283 22,000  Level Salt Lake Center
07:00PM 45.3081 -104.5553 222° Southwest 243 280 22,000  Level Salt Lake Center
07:01PM 45.2592 -104.6172 220° Southwest 239 275 22,000  Level Salt Lake Center
07:02PM 45.2033 -104.6847 219° Southwest 241 277 22,000  Level Salt Lake Center
07:03PM 45.1517 -104.7431 220° Southwest 245 282 22,000  Level Salt Lake Center
07:04PM 45.0942 -104.8111 220° Southwest 244 281 22,000  Level Salt Lake Center
07:05PM 45.0444 -104.8700 220° Southwest 243 280 22,000  Level Salt Lake Center
07:06PM 44.9867 -104.9386 218° Southwest 243 280 22,000  Level Salt Lake Center
07:07PM 44.9358 -104.9956 220° Southwest 244 281 22,000  Level Salt Lake Center
07:08PM 44.8783 -105.0628 220° Southwest 242 278 22,000  Level Salt Lake Center
07:09PM 44.8450 -105.1025 216° Southwest 241 277 22,000  Level Denver Center
07:10PM 44.7825 -105.1672 218° Southwest 247 284 22,000  Level Denver Center
07:11PM 44.7294 -105.2258 219° Southwest 246 283 22,000  Level Denver Center
07:12PM 44.6700 -105.2933 217° Southwest 247 284 22,100  Climbing Denver Center
07:13PM 44.6181 -105.3489 217° Southwest 245 282 22,100 -60 Level Denver Center
07:14PM 44.5586 -105.4122 218° Southwest 247 284 22,000 -120 Descending Denver Center
07:15PM 44.5069 -105.4692 217° Southwest 246 283 21,900 -60 Descending Denver Center
07:16PM 44.4431 -105.5356 219° Southwest 250 288 21,900  Level Denver Center
07:22PM 44.1106 -105.9108 216° Southwest 254 292 22,000  Climbing Denver Center
07:23PM 44.0544 -105.9675 214° Southwest 257 296 21,900  Descending Denver Center
07:24PM 43.9883 -106.0289 217° Southwest 257 296 22,000  Climbing Denver Center
07:25PM 43.9344 -106.0844 220° Southwest 256 295 22,000  Level Denver Center
07:26PM 43.8769 -106.1506 218° Southwest 250 288 22,000  Level Denver Center
07:27PM 43.8244 -106.2072 214° Southwest 249 287 22,000 -60 Level Denver Center
07:28PM 43.7583 -106.2692 218° Southwest 253 291 21,900 -60 Descending Denver Center
07:30PM 43.6942 -106.3394 217° Southwest 257 296 21,900  Level Salt Lake Center
07:31PM 43.6322 -106.4047 217° Southwest 251 289 21,900  Level Salt Lake Center
07:32PM 43.5781 -106.4608 217° Southwest 253 291 22,000 60 Climbing Salt Lake Center
07:33PM 43.5153 -106.5267 216° Southwest 254 292 22,100  Climbing Salt Lake Center
07:34PM 43.4606 -106.5822 216° Southwest 255 293 22,100  Level Salt Lake Center
07:35PM 43.3956 -106.6481 212° Southwest 258 297 22,100 -60 Level Salt Lake Center
07:36PM 43.3372 -106.6983 217° Southwest 259 298 22,000  Descending Salt Lake Center
07:37PM 43.2731 -106.7650 218° Southwest 259 298 22,100  Climbing Salt Lake Center
07:38PM 43.2186 -106.8239 213° Southwest 259 298 22,000 -60 Descending Salt Lake Center
07:39PM 43.1478 -106.8872 215° Southwest 262 302 22,000  Level Salt Lake Center
07:40PM 43.0914 -106.9422 216° Southwest 261 300 22,000  Level Salt Lake Center
07:41PM 43.0258 -107.0072 213° Southwest 260 299 22,100  Climbing Salt Lake Center
07:42PM 42.9678 -107.0589 216° Southwest 260 299 22,000 -60 Descending Salt Lake Center
07:43PM 42.9058 -107.1214 219° Southwest 260 299 22,000  Level Salt Lake Center
07:44PM 42.8525 -107.1806 218° Southwest 259 298 22,100  Climbing Salt Lake Center
07:45PM 42.7894 -107.2483 215° Southwest 258 297 22,000 -60 Descending Salt Lake Center
07:46PM 42.7325 -107.3022 214° Southwest 260 299 22,000  Level Salt Lake Center
07:47PM 42.6658 -107.3636 218° Southwest 260 299 22,000  Level Salt Lake Center
07:48PM 42.6114 -107.4206 222° Southwest 259 298 22,000  Level Salt Lake Center
07:49PM 42.5522 -107.4925 222° Southwest 256 295 22,000  Level Salt Lake Center
07:50PM 42.5019 -107.5531 217° Southwest 254 292 22,000  Level Salt Lake Center
07:51PM 42.4381 -107.6194 221° Southwest 257 296 22,000  Level Salt Lake Center
07:52PM 42.3869 -107.6794 220° Southwest 256 295 22,000  Level Salt Lake Center
07:53PM 42.3264 -107.7489 214° Southwest 255 293 22,000  Level Salt Lake Center
07:54PM 42.2692 -107.8017 215° Southwest 258 297 22,000  Level Salt Lake Center
07:55PM 42.2028 -107.8633 216° Southwest 259 298 22,000  Level Salt Lake Center
07:57PM 42.1467 -107.9192 215° Southwest 260 299 22,000  Level Salt Lake Center
07:58PM 42.0811 -107.9819 216° Southwest 260 299 22,100  Climbing Salt Lake Center
07:59PM 42.0242 -108.0367 215° Southwest 261 300 22,000 -60 Descending Salt Lake Center
08:00PM 41.9572 -108.1008 216° Southwest 263 303 22,000  Level Salt Lake Center
08:01PM 41.9014 -108.1561 212° Southwest 262 302 22,000  Level Salt Lake Center
08:02PM 41.8292 -108.2156 215° Southwest 268 308 22,000  Level Salt Lake Center
08:03PM 41.7714 -108.2703 220° Southwest 267 307 22,000  Level Salt Lake Center
08:04PM 41.7175 -108.3300 217° Southwest 264 304 22,000  Level Salt Lake Center
08:05PM 41.6528 -108.3964 216° Southwest 262 302 22,100  Climbing Salt Lake Center
08:06PM 41.5961 -108.4522 218° Southwest 263 303 22,000 -60 Descending Salt Lake Center
08:07PM 41.5308 -108.5197 216° Southwest 264 304 22,000 60 Level Salt Lake Center
08:08PM 41.4733 -108.5764 219° Southwest 267 307 22,200  Climbing Salt Lake Center
08:09PM 41.4100 -108.6439 218° Southwest 262 302 22,000 -180 Descending Salt Lake Center
08:10PM 41.3536 -108.7036 221° Southwest 267 307 21,900 -60 Descending Salt Lake Center
08:11PM 41.2897 -108.7764 220° Southwest 269 310 21,900  Level Salt Lake Center
08:12PM 41.2342 -108.8386 217° Southwest 270 311 22,000  Climbing Salt Lake Center
08:13PM 41.1689 -108.9031 214° Southwest 264 304 22,000 -420 Level Salt Lake Center
08:14PM 41.1067 -108.9583 214° Southwest 275 316 21,200 -780 Descending Salt Lake Center
08:15PM 41.0397 -109.0186 215° Southwest 296 341 20,400 -1,020 Descending Salt Lake Center
08:16PM 40.9606 -109.0933 215° Southwest 308 354 19,200 -1,380 Descending Salt Lake Center
08:17PM 40.8908 -109.1572 215° Southwest 314 361 17,600 -1,740 Descending Salt Lake Center
08:18PM 40.8172 -109.2244 209° Southwest 301 346 15,600 -1,860 Descending Salt Lake Center
08:19PM 40.7511 -109.2733 205° Southwest 289 333 13,800 -1,740 Descending Salt Lake Center
08:20PM 40.6719 -109.3219 205° Southwest 283 326 12,100 -1,680 Descending Salt Lake Center